sensor_id;sensor_type;location;lat;lon;timestamp;P1;durP1;ratioP1;P2;durP2;ratioP2
45944;SDS011;31655;48.972;10.686;2023-08-21T00:02:03;12.10;;;8.73;;
45944;SDS011;31655;48.972;10.686;2023-08-21T00:04:29;12.00;;;8.60;;
45944;SDS011;31655;48.972;10.686;2023-08-21T00:06:55;12.05;;;9.35;;
45944;SDS011;31655;48.972;10.686;2023-08-21T00:09:21;13.77;;;9.65;;
45944;SDS011;31655;48.972;10.686;2023-08-21T00:11:47;14.02;;;9.88;;
45944;SDS011;31655;48.972;10.686;2023-08-21T00:14:13;16.00;;;10.15;;
45944;SDS011;31655;48.972;10.686;2023-08-21T00:16:39;11.90;;;9.32;;
45944;SDS011;31655;48.972;10.686;2023-08-21T00:19:05;10.85;;;9.75;;
45944;SDS011;31655;48.972;10.686;2023-08-21T00:21:31;15.25;;;10.63;;
45944;SDS011;31655;48.972;10.686;2023-08-21T00:23:57;12.30;;;10.02;;
45944;SDS011;31655;48.972;10.686;2023-08-21T00:26:23;16.17;;;10.60;;
45944;SDS011;31655;48.972;10.686;2023-08-21T00:28:49;19.20;;;12.32;;
45944;SDS011;31655;48.972;10.686;2023-08-21T00:31:15;14.90;;;11.75;;
45944;SDS011;31655;48.972;10.686;2023-08-21T00:33:41;18.10;;;12.50;;
45944;SDS011;31655;48.972;10.686;2023-08-21T00:36:07;14.48;;;11.02;;
45944;SDS011;31655;48.972;10.686;2023-08-21T00:38:33;14.52;;;10.75;;
45944;SDS011;31655;48.972;10.686;2023-08-21T00:40:59;25.58;;;12.40;;
45944;SDS011;31655;48.972;10.686;2023-08-21T00:43:25;16.02;;;11.82;;
45944;SDS011;31655;48.972;10.686;2023-08-21T00:45:52;15.55;;;10.90;;
45944;SDS011;31655;48.972;10.686;2023-08-21T00:48:19;21.05;;;12.95;;
45944;SDS011;31655;48.972;10.686;2023-08-21T00:50:45;16.75;;;11.35;;
45944;SDS011;31655;48.972;10.686;2023-08-21T00:53:12;17.70;;;12.35;;
45944;SDS011;31655;48.972;10.686;2023-08-21T00:55:38;17.33;;;12.32;;
45944;SDS011;31655;48.972;10.686;2023-08-21T00:58:04;19.98;;;11.93;;
45944;SDS011;31655;48.972;10.686;2023-08-21T01:00:31;17.67;;;11.30;;
45944;SDS011;31655;48.972;10.686;2023-08-21T01:02:56;21.52;;;13.25;;
45944;SDS011;31655;48.972;10.686;2023-08-21T01:05:22;17.08;;;12.73;;
45944;SDS011;31655;48.972;10.686;2023-08-21T01:07:59;15.07;;;11.52;;
45944;SDS011;31655;48.972;10.686;2023-08-21T01:10:39;14.35;;;11.82;;
45944;SDS011;31655;48.972;10.686;2023-08-21T01:15:50;17.67;;;12.93;;
45944;SDS011;31655;48.972;10.686;2023-08-21T01:18:16;15.75;;;11.18;;
45944;SDS011;31655;48.972;10.686;2023-08-21T01:20:46;18.92;;;11.82;;
45944;SDS011;31655;48.972;10.686;2023-08-21T01:23:29;13.27;;;11.75;;
45944;SDS011;31655;48.972;10.686;2023-08-21T01:25:55;21.80;;;12.30;;
45944;SDS011;31655;48.972;10.686;2023-08-21T01:28:21;15.27;;;11.55;;
45944;SDS011;31655;48.972;10.686;2023-08-21T01:30:48;16.38;;;11.65;;
45944;SDS011;31655;48.972;10.686;2023-08-21T01:33:14;15.73;;;11.80;;
45944;SDS011;31655;48.972;10.686;2023-08-21T01:35:41;15.77;;;11.88;;
45944;SDS011;31655;48.972;10.686;2023-08-21T01:38:08;17.80;;;11.65;;
45944;SDS011;31655;48.972;10.686;2023-08-21T01:40:34;15.55;;;11.48;;
45944;SDS011;31655;48.972;10.686;2023-08-21T01:43:00;15.25;;;12.50;;
45944;SDS011;31655;48.972;10.686;2023-08-21T01:45:27;16.75;;;12.00;;
45944;SDS011;31655;48.972;10.686;2023-08-21T01:47:53;13.50;;;10.90;;
45944;SDS011;31655;48.972;10.686;2023-08-21T01:50:19;14.23;;;11.63;;
45944;SDS011;31655;48.972;10.686;2023-08-21T01:52:45;16.05;;;11.25;;
45944;SDS011;31655;48.972;10.686;2023-08-21T01:55:11;20.35;;;12.95;;
45944;SDS011;31655;48.972;10.686;2023-08-21T01:57:37;22.13;;;13.07;;
45944;SDS011;31655;48.972;10.686;2023-08-21T02:00:03;19.05;;;11.98;;
45944;SDS011;31655;48.972;10.686;2023-08-21T02:02:30;16.10;;;11.13;;
45944;SDS011;31655;48.972;10.686;2023-08-21T02:04:55;15.07;;;12.38;;
45944;SDS011;31655;48.972;10.686;2023-08-21T02:07:21;18.67;;;12.48;;
45944;SDS011;31655;48.972;10.686;2023-08-21T02:09:47;16.58;;;10.75;;
45944;SDS011;31655;48.972;10.686;2023-08-21T02:12:13;15.18;;;12.63;;
45944;SDS011;31655;48.972;10.686;2023-08-21T02:14:39;16.30;;;11.82;;
45944;SDS011;31655;48.972;10.686;2023-08-21T02:17:05;14.55;;;11.10;;
45944;SDS011;31655;48.972;10.686;2023-08-21T02:19:31;12.63;;;11.18;;
45944;SDS011;31655;48.972;10.686;2023-08-21T02:21:57;16.83;;;12.32;;
45944;SDS011;31655;48.972;10.686;2023-08-21T02:24:23;18.77;;;11.63;;
45944;SDS011;31655;48.972;10.686;2023-08-21T02:26:49;11.93;;;10.13;;
45944;SDS011;31655;48.972;10.686;2023-08-21T02:29:15;13.65;;;10.80;;
45944;SDS011;31655;48.972;10.686;2023-08-21T02:31:41;16.63;;;10.93;;
45944;SDS011;31655;48.972;10.686;2023-08-21T02:34:07;13.27;;;11.00;;
45944;SDS011;31655;48.972;10.686;2023-08-21T02:36:33;17.58;;;12.35;;
45944;SDS011;31655;48.972;10.686;2023-08-21T02:38:59;18.33;;;12.00;;
45944;SDS011;31655;48.972;10.686;2023-08-21T02:41:25;16.67;;;11.95;;
45944;SDS011;31655;48.972;10.686;2023-08-21T02:43:51;16.90;;;11.32;;
45944;SDS011;31655;48.972;10.686;2023-08-21T02:46:17;12.57;;;10.63;;
45944;SDS011;31655;48.972;10.686;2023-08-21T02:48:43;16.55;;;12.15;;
45944;SDS011;31655;48.972;10.686;2023-08-21T02:51:09;14.98;;;10.98;;
45944;SDS011;31655;48.972;10.686;2023-08-21T02:53:34;14.80;;;10.77;;
45944;SDS011;31655;48.972;10.686;2023-08-21T02:56:00;15.00;;;10.77;;
45944;SDS011;31655;48.972;10.686;2023-08-21T02:58:26;13.73;;;11.05;;
45944;SDS011;31655;48.972;10.686;2023-08-21T03:00:53;16.27;;;11.60;;
45944;SDS011;31655;48.972;10.686;2023-08-21T03:03:19;14.70;;;11.77;;
45944;SDS011;31655;48.972;10.686;2023-08-21T03:05:44;17.63;;;11.82;;
45944;SDS011;31655;48.972;10.686;2023-08-21T03:08:11;16.35;;;11.25;;
45944;SDS011;31655;48.972;10.686;2023-08-21T03:10:36;16.27;;;11.65;;
45944;SDS011;31655;48.972;10.686;2023-08-21T03:13:03;12.57;;;11.25;;
45944;SDS011;31655;48.972;10.686;2023-08-21T03:15:28;13.07;;;11.15;;
45944;SDS011;31655;48.972;10.686;2023-08-21T03:17:55;17.23;;;11.30;;
45944;SDS011;31655;48.972;10.686;2023-08-21T03:20:21;14.65;;;11.55;;
45944;SDS011;31655;48.972;10.686;2023-08-21T03:22:47;16.50;;;11.82;;
45944;SDS011;31655;48.972;10.686;2023-08-21T03:25:13;14.95;;;11.63;;
45944;SDS011;31655;48.972;10.686;2023-08-21T03:27:39;13.65;;;11.18;;
45944;SDS011;31655;48.972;10.686;2023-08-21T03:30:09;15.27;;;12.27;;
45944;SDS011;31655;48.972;10.686;2023-08-21T03:32:35;16.67;;;12.30;;
45944;SDS011;31655;48.972;10.686;2023-08-21T03:35:01;15.25;;;11.73;;
45944;SDS011;31655;48.972;10.686;2023-08-21T03:37:27;13.95;;;12.30;;
45944;SDS011;31655;48.972;10.686;2023-08-21T03:39:53;18.35;;;14.15;;
45944;SDS011;31655;48.972;10.686;2023-08-21T03:42:19;25.13;;;14.25;;
45944;SDS011;31655;48.972;10.686;2023-08-21T03:44:45;18.77;;;14.00;;
45944;SDS011;31655;48.972;10.686;2023-08-21T03:47:13;18.30;;;14.52;;
45944;SDS011;31655;48.972;10.686;2023-08-21T03:49:39;20.08;;;15.05;;
45944;SDS011;31655;48.972;10.686;2023-08-21T03:52:05;19.83;;;15.00;;
45944;SDS011;31655;48.972;10.686;2023-08-21T03:54:31;20.02;;;15.00;;
45944;SDS011;31655;48.972;10.686;2023-08-21T03:56:57;20.02;;;14.48;;
45944;SDS011;31655;48.972;10.686;2023-08-21T03:59:23;22.02;;;15.70;;
45944;SDS011;31655;48.972;10.686;2023-08-21T04:01:52;20.92;;;14.82;;
45944;SDS011;31655;48.972;10.686;2023-08-21T04:04:18;18.13;;;14.50;;
45944;SDS011;31655;48.972;10.686;2023-08-21T04:06:44;17.83;;;14.35;;
45944;SDS011;31655;48.972;10.686;2023-08-21T04:09:10;22.05;;;14.50;;
45944;SDS011;31655;48.972;10.686;2023-08-21T04:11:36;19.33;;;14.52;;
45944;SDS011;31655;48.972;10.686;2023-08-21T04:14:03;23.92;;;14.52;;
45944;SDS011;31655;48.972;10.686;2023-08-21T04:16:29;19.13;;;14.05;;
45944;SDS011;31655;48.972;10.686;2023-08-21T04:18:55;20.10;;;15.05;;
45944;SDS011;31655;48.972;10.686;2023-08-21T04:21:22;21.15;;;15.45;;
45944;SDS011;31655;48.972;10.686;2023-08-21T04:23:48;19.77;;;15.25;;
45944;SDS011;31655;48.972;10.686;2023-08-21T04:26:14;23.88;;;15.75;;
45944;SDS011;31655;48.972;10.686;2023-08-21T04:28:40;20.23;;;15.63;;
45944;SDS011;31655;48.972;10.686;2023-08-21T04:31:07;18.60;;;15.45;;
45944;SDS011;31655;48.972;10.686;2023-08-21T04:33:33;21.08;;;15.73;;
45944;SDS011;31655;48.972;10.686;2023-08-21T04:36:02;23.15;;;14.18;;
45944;SDS011;31655;48.972;10.686;2023-08-21T04:38:28;28.23;;;15.20;;
45944;SDS011;31655;48.972;10.686;2023-08-21T04:40:54;18.63;;;14.80;;
45944;SDS011;31655;48.972;10.686;2023-08-21T04:43:20;20.20;;;15.95;;
45944;SDS011;31655;48.972;10.686;2023-08-21T04:45:49;17.30;;;13.70;;
45944;SDS011;31655;48.972;10.686;2023-08-21T04:48:15;16.15;;;13.40;;
45944;SDS011;31655;48.972;10.686;2023-08-21T04:50:51;16.65;;;13.23;;
45944;SDS011;31655;48.972;10.686;2023-08-21T04:53:17;22.48;;;15.10;;
45944;SDS011;31655;48.972;10.686;2023-08-21T04:55:43;22.23;;;14.60;;
45944;SDS011;31655;48.972;10.686;2023-08-21T04:58:09;20.35;;;14.90;;
45944;SDS011;31655;48.972;10.686;2023-08-21T05:00:35;17.75;;;14.15;;
45944;SDS011;31655;48.972;10.686;2023-08-21T05:03:01;19.48;;;13.68;;
45944;SDS011;31655;48.972;10.686;2023-08-21T05:05:28;22.67;;;13.65;;
45944;SDS011;31655;48.972;10.686;2023-08-21T05:07:54;21.77;;;15.52;;
45944;SDS011;31655;48.972;10.686;2023-08-21T05:10:20;17.25;;;14.77;;
45944;SDS011;31655;48.972;10.686;2023-08-21T05:12:46;21.73;;;13.77;;
45944;SDS011;31655;48.972;10.686;2023-08-21T05:15:12;20.35;;;14.88;;
45944;SDS011;31655;48.972;10.686;2023-08-21T05:17:38;22.13;;;15.18;;
45944;SDS011;31655;48.972;10.686;2023-08-21T05:20:04;17.35;;;14.23;;
45944;SDS011;31655;48.972;10.686;2023-08-21T05:22:30;15.57;;;12.77;;
45944;SDS011;31655;48.972;10.686;2023-08-21T05:24:56;18.02;;;13.65;;
45944;SDS011;31655;48.972;10.686;2023-08-21T05:27:22;19.52;;;12.82;;
45944;SDS011;31655;48.972;10.686;2023-08-21T05:29:47;17.15;;;12.98;;
45944;SDS011;31655;48.972;10.686;2023-08-21T05:32:15;21.70;;;13.60;;
45944;SDS011;31655;48.972;10.686;2023-08-21T05:34:41;15.38;;;11.68;;
45944;SDS011;31655;48.972;10.686;2023-08-21T05:37:07;17.10;;;12.00;;
45944;SDS011;31655;48.972;10.686;2023-08-21T05:39:33;14.13;;;11.30;;
45944;SDS011;31655;48.972;10.686;2023-08-21T05:41:59;14.23;;;10.68;;
45944;SDS011;31655;48.972;10.686;2023-08-21T05:44:25;13.40;;;12.02;;
45944;SDS011;31655;48.972;10.686;2023-08-21T05:46:51;14.88;;;11.85;;
45944;SDS011;31655;48.972;10.686;2023-08-21T05:49:16;13.35;;;11.95;;
45944;SDS011;31655;48.972;10.686;2023-08-21T05:51:44;12.02;;;10.77;;
45944;SDS011;31655;48.972;10.686;2023-08-21T05:54:09;17.58;;;12.52;;
45944;SDS011;31655;48.972;10.686;2023-08-21T05:56:35;14.55;;;11.32;;
45944;SDS011;31655;48.972;10.686;2023-08-21T05:59:01;13.05;;;11.65;;
45944;SDS011;31655;48.972;10.686;2023-08-21T06:01:27;16.95;;;12.65;;
45944;SDS011;31655;48.972;10.686;2023-08-21T06:03:53;14.43;;;12.75;;
45944;SDS011;31655;48.972;10.686;2023-08-21T06:06:19;18.65;;;12.07;;
45944;SDS011;31655;48.972;10.686;2023-08-21T06:08:45;16.95;;;12.60;;
45944;SDS011;31655;48.972;10.686;2023-08-21T06:11:11;12.60;;;11.30;;
45944;SDS011;31655;48.972;10.686;2023-08-21T06:13:37;18.10;;;12.82;;
45944;SDS011;31655;48.972;10.686;2023-08-21T06:16:03;15.88;;;12.82;;
45944;SDS011;31655;48.972;10.686;2023-08-21T06:18:29;13.95;;;11.98;;
45944;SDS011;31655;48.972;10.686;2023-08-21T06:20:55;14.07;;;11.93;;
45944;SDS011;31655;48.972;10.686;2023-08-21T06:23:21;14.43;;;11.38;;
45944;SDS011;31655;48.972;10.686;2023-08-21T06:25:49;13.13;;;10.93;;
45944;SDS011;31655;48.972;10.686;2023-08-21T06:28:15;12.57;;;11.30;;
45944;SDS011;31655;48.972;10.686;2023-08-21T06:30:41;14.05;;;10.27;;
45944;SDS011;31655;48.972;10.686;2023-08-21T06:33:07;15.95;;;10.95;;
45944;SDS011;31655;48.972;10.686;2023-08-21T06:35:35;18.65;;;10.73;;
45944;SDS011;31655;48.972;10.686;2023-08-21T06:38:02;10.88;;;9.65;;
45944;SDS011;31655;48.972;10.686;2023-08-21T06:40:28;13.30;;;9.70;;
45944;SDS011;31655;48.972;10.686;2023-08-21T06:42:53;11.30;;;10.20;;
45944;SDS011;31655;48.972;10.686;2023-08-21T06:45:19;11.27;;;10.27;;
45944;SDS011;31655;48.972;10.686;2023-08-21T06:47:45;12.18;;;10.13;;
45944;SDS011;31655;48.972;10.686;2023-08-21T06:50:12;10.90;;;9.90;;
45944;SDS011;31655;48.972;10.686;2023-08-21T06:52:37;12.00;;;8.77;;
45944;SDS011;31655;48.972;10.686;2023-08-21T06:55:03;11.23;;;9.75;;
45944;SDS011;31655;48.972;10.686;2023-08-21T06:57:29;13.80;;;10.23;;
45944;SDS011;31655;48.972;10.686;2023-08-21T06:59:55;12.10;;;10.80;;
45944;SDS011;31655;48.972;10.686;2023-08-21T07:02:21;12.20;;;11.05;;
45944;SDS011;31655;48.972;10.686;2023-08-21T07:04:46;17.13;;;10.52;;
45944;SDS011;31655;48.972;10.686;2023-08-21T07:07:12;13.20;;;10.43;;
45944;SDS011;31655;48.972;10.686;2023-08-21T07:09:38;12.73;;;11.10;;
45944;SDS011;31655;48.972;10.686;2023-08-21T07:12:06;10.65;;;9.57;;
45944;SDS011;31655;48.972;10.686;2023-08-21T07:14:35;12.13;;;8.98;;
45944;SDS011;31655;48.972;10.686;2023-08-21T07:17:01;11.90;;;10.60;;
45944;SDS011;31655;48.972;10.686;2023-08-21T07:19:27;10.60;;;9.50;;
45944;SDS011;31655;48.972;10.686;2023-08-21T07:21:53;11.90;;;9.88;;
45944;SDS011;31655;48.972;10.686;2023-08-21T07:24:19;11.25;;;9.80;;
45944;SDS011;31655;48.972;10.686;2023-08-21T07:26:45;12.13;;;10.90;;
45944;SDS011;31655;48.972;10.686;2023-08-21T07:29:11;11.65;;;9.80;;
45944;SDS011;31655;48.972;10.686;2023-08-21T07:31:37;12.82;;;9.65;;
45944;SDS011;31655;48.972;10.686;2023-08-21T07:34:03;10.48;;;9.57;;
45944;SDS011;31655;48.972;10.686;2023-08-21T07:36:30;12.68;;;10.15;;
45944;SDS011;31655;48.972;10.686;2023-08-21T07:38:57;9.68;;;8.20;;
45944;SDS011;31655;48.972;10.686;2023-08-21T07:41:22;8.75;;;7.85;;
45944;SDS011;31655;48.972;10.686;2023-08-21T07:43:48;11.85;;;9.48;;
45944;SDS011;31655;48.972;10.686;2023-08-21T07:46:14;10.63;;;8.68;;
45944;SDS011;31655;48.972;10.686;2023-08-21T07:48:41;10.68;;;8.95;;
45944;SDS011;31655;48.972;10.686;2023-08-21T07:51:07;11.00;;;8.15;;
45944;SDS011;31655;48.972;10.686;2023-08-21T07:53:33;12.98;;;9.13;;
45944;SDS011;31655;48.972;10.686;2023-08-21T07:56:00;11.43;;;8.55;;
45944;SDS011;31655;48.972;10.686;2023-08-21T07:58:26;10.60;;;8.98;;
45944;SDS011;31655;48.972;10.686;2023-08-21T08:00:53;9.90;;;8.07;;
45944;SDS011;31655;48.972;10.686;2023-08-21T08:03:19;9.98;;;7.85;;
45944;SDS011;31655;48.972;10.686;2023-08-21T08:05:45;9.63;;;8.65;;
45944;SDS011;31655;48.972;10.686;2023-08-21T08:08:11;10.07;;;7.97;;
45944;SDS011;31655;48.972;10.686;2023-08-21T08:10:40;9.02;;;8.23;;
45944;SDS011;31655;48.972;10.686;2023-08-21T08:13:06;10.07;;;7.97;;
45944;SDS011;31655;48.972;10.686;2023-08-21T08:15:36;9.43;;;8.52;;
45944;SDS011;31655;48.972;10.686;2023-08-21T08:18:09;9.88;;;8.25;;
45944;SDS011;31655;48.972;10.686;2023-08-21T08:20:37;10.82;;;9.30;;
45944;SDS011;31655;48.972;10.686;2023-08-21T08:23:19;9.93;;;8.75;;
45944;SDS011;31655;48.972;10.686;2023-08-21T08:25:45;9.40;;;8.43;;
45944;SDS011;31655;48.972;10.686;2023-08-21T08:28:14;8.35;;;7.55;;
45944;SDS011;31655;48.972;10.686;2023-08-21T08:30:40;9.85;;;8.85;;
45944;SDS011;31655;48.972;10.686;2023-08-21T08:33:06;8.38;;;7.35;;
45944;SDS011;31655;48.972;10.686;2023-08-21T08:35:32;9.13;;;7.72;;
45944;SDS011;31655;48.972;10.686;2023-08-21T08:37:57;11.50;;;7.65;;
45944;SDS011;31655;48.972;10.686;2023-08-21T08:40:23;9.32;;;7.72;;
45944;SDS011;31655;48.972;10.686;2023-08-21T08:42:52;11.63;;;7.97;;
45944;SDS011;31655;48.972;10.686;2023-08-21T08:45:19;8.30;;;7.38;;
45944;SDS011;31655;48.972;10.686;2023-08-21T08:47:59;10.05;;;7.50;;
45944;SDS011;31655;48.972;10.686;2023-08-21T08:50:29;8.48;;;6.88;;
45944;SDS011;31655;48.972;10.686;2023-08-21T08:52:57;7.60;;;6.20;;
45944;SDS011;31655;48.972;10.686;2023-08-21T08:55:23;17.65;;;6.63;;
45944;SDS011;31655;48.972;10.686;2023-08-21T08:57:50;7.60;;;6.85;;
45944;SDS011;31655;48.972;10.686;2023-08-21T09:00:17;7.20;;;6.20;;
45944;SDS011;31655;48.972;10.686;2023-08-21T09:02:44;9.98;;;6.53;;
45944;SDS011;31655;48.972;10.686;2023-08-21T09:05:10;6.93;;;6.35;;
45944;SDS011;31655;48.972;10.686;2023-08-21T09:07:37;8.40;;;6.85;;
45944;SDS011;31655;48.972;10.686;2023-08-21T09:10:03;8.43;;;6.68;;
45944;SDS011;31655;48.972;10.686;2023-08-21T09:12:32;8.50;;;7.10;;
45944;SDS011;31655;48.972;10.686;2023-08-21T09:14:59;7.65;;;6.28;;
45944;SDS011;31655;48.972;10.686;2023-08-21T09:17:25;9.55;;;7.32;;
45944;SDS011;31655;48.972;10.686;2023-08-21T09:19:52;9.52;;;7.45;;
45944;SDS011;31655;48.972;10.686;2023-08-21T09:22:18;13.02;;;7.32;;
45944;SDS011;31655;48.972;10.686;2023-08-21T09:25:03;6.60;;;6.00;;
45944;SDS011;31655;48.972;10.686;2023-08-21T09:27:38;11.85;;;7.30;;
45944;SDS011;31655;48.972;10.686;2023-08-21T09:30:05;12.40;;;7.18;;
45944;SDS011;31655;48.972;10.686;2023-08-21T09:32:52;9.48;;;6.80;;
45944;SDS011;31655;48.972;10.686;2023-08-21T09:35:32;8.65;;;5.90;;
45944;SDS011;31655;48.972;10.686;2023-08-21T09:38:01;7.30;;;5.93;;
45944;SDS011;31655;48.972;10.686;2023-08-21T09:40:28;10.98;;;6.57;;
45944;SDS011;31655;48.972;10.686;2023-08-21T09:43:02;10.57;;;6.90;;
45944;SDS011;31655;48.972;10.686;2023-08-21T09:45:30;10.43;;;7.10;;
45944;SDS011;31655;48.972;10.686;2023-08-21T09:47:56;10.65;;;5.90;;
45944;SDS011;31655;48.972;10.686;2023-08-21T09:50:23;7.95;;;5.10;;
45944;SDS011;31655;48.972;10.686;2023-08-21T09:52:50;7.25;;;6.38;;
45944;SDS011;31655;48.972;10.686;2023-08-21T09:55:17;9.43;;;6.68;;
45944;SDS011;31655;48.972;10.686;2023-08-21T09:57:51;10.15;;;4.88;;
45944;SDS011;31655;48.972;10.686;2023-08-21T10:00:23;6.78;;;5.25;;
45944;SDS011;31655;48.972;10.686;2023-08-21T10:02:50;8.82;;;5.13;;
45944;SDS011;31655;48.972;10.686;2023-08-21T10:05:23;7.70;;;5.03;;
45944;SDS011;31655;48.972;10.686;2023-08-21T10:07:49;9.40;;;5.25;;
45944;SDS011;31655;48.972;10.686;2023-08-21T10:10:18;10.73;;;6.75;;
45944;SDS011;31655;48.972;10.686;2023-08-21T10:12:45;8.43;;;6.10;;
45944;SDS011;31655;48.972;10.686;2023-08-21T10:15:11;10.98;;;6.22;;
45944;SDS011;31655;48.972;10.686;2023-08-21T10:17:46;8.88;;;5.28;;
45944;SDS011;31655;48.972;10.686;2023-08-21T10:20:12;6.78;;;6.00;;
45944;SDS011;31655;48.972;10.686;2023-08-21T10:22:43;11.65;;;5.60;;
45944;SDS011;31655;48.972;10.686;2023-08-21T10:25:28;8.73;;;6.15;;
45944;SDS011;31655;48.972;10.686;2023-08-21T10:27:57;7.25;;;6.10;;
45944;SDS011;31655;48.972;10.686;2023-08-21T10:30:29;12.48;;;6.53;;
45944;SDS011;31655;48.972;10.686;2023-08-21T10:32:56;7.80;;;6.25;;
45944;SDS011;31655;48.972;10.686;2023-08-21T10:35:24;8.30;;;5.30;;
45944;SDS011;31655;48.972;10.686;2023-08-21T10:38:10;12.98;;;5.28;;
45944;SDS011;31655;48.972;10.686;2023-08-21T10:40:37;8.77;;;5.38;;
45944;SDS011;31655;48.972;10.686;2023-08-21T10:43:04;8.93;;;5.68;;
45944;SDS011;31655;48.972;10.686;2023-08-21T10:45:53;8.48;;;6.68;;
45944;SDS011;31655;48.972;10.686;2023-08-21T10:48:20;15.15;;;6.93;;
45944;SDS011;31655;48.972;10.686;2023-08-21T10:50:46;9.40;;;5.93;;
45944;SDS011;31655;48.972;10.686;2023-08-21T10:53:12;8.13;;;5.78;;
45944;SDS011;31655;48.972;10.686;2023-08-21T10:55:39;8.43;;;5.70;;
45944;SDS011;31655;48.972;10.686;2023-08-21T10:58:07;8.52;;;5.15;;
45944;SDS011;31655;48.972;10.686;2023-08-21T11:00:36;8.15;;;5.15;;
45944;SDS011;31655;48.972;10.686;2023-08-21T11:03:02;9.50;;;6.18;;
45944;SDS011;31655;48.972;10.686;2023-08-21T11:05:28;10.68;;;5.70;;
45944;SDS011;31655;48.972;10.686;2023-08-21T11:07:53;11.18;;;6.28;;
45944;SDS011;31655;48.972;10.686;2023-08-21T11:10:23;9.52;;;5.70;;
45944;SDS011;31655;48.972;10.686;2023-08-21T11:12:53;8.68;;;6.70;;
45944;SDS011;31655;48.972;10.686;2023-08-21T11:15:24;8.35;;;6.00;;
45944;SDS011;31655;48.972;10.686;2023-08-21T11:17:51;6.82;;;5.43;;
45944;SDS011;31655;48.972;10.686;2023-08-21T11:20:21;7.20;;;5.72;;
45944;SDS011;31655;48.972;10.686;2023-08-21T11:22:47;7.95;;;5.68;;
45944;SDS011;31655;48.972;10.686;2023-08-21T11:25:14;8.10;;;6.45;;
45944;SDS011;31655;48.972;10.686;2023-08-21T11:27:41;8.98;;;6.97;;
45944;SDS011;31655;48.972;10.686;2023-08-21T11:30:10;7.80;;;6.80;;
45944;SDS011;31655;48.972;10.686;2023-08-21T11:32:37;10.43;;;7.43;;
45944;SDS011;31655;48.972;10.686;2023-08-21T11:35:03;8.95;;;7.63;;
45944;SDS011;31655;48.972;10.686;2023-08-21T11:37:29;10.00;;;7.28;;
45944;SDS011;31655;48.972;10.686;2023-08-21T11:39:56;8.70;;;7.30;;
45944;SDS011;31655;48.972;10.686;2023-08-21T11:42:28;9.50;;;6.80;;
45944;SDS011;31655;48.972;10.686;2023-08-21T11:44:55;10.52;;;7.45;;
45944;SDS011;31655;48.972;10.686;2023-08-21T11:47:21;10.52;;;7.55;;
45944;SDS011;31655;48.972;10.686;2023-08-21T11:49:48;10.15;;;7.38;;
45944;SDS011;31655;48.972;10.686;2023-08-21T11:52:17;10.10;;;7.85;;
45944;SDS011;31655;48.972;10.686;2023-08-21T11:57:16;10.25;;;7.55;;
45944;SDS011;31655;48.972;10.686;2023-08-21T11:59:41;9.52;;;6.82;;
45944;SDS011;31655;48.972;10.686;2023-08-21T12:02:09;11.82;;;7.25;;
45944;SDS011;31655;48.972;10.686;2023-08-21T12:04:36;10.10;;;7.00;;
45944;SDS011;31655;48.972;10.686;2023-08-21T12:07:02;11.63;;;7.72;;
45944;SDS011;31655;48.972;10.686;2023-08-21T12:09:28;7.75;;;6.97;;
45944;SDS011;31655;48.972;10.686;2023-08-21T12:11:54;13.82;;;6.88;;
45944;SDS011;31655;48.972;10.686;2023-08-21T12:14:22;11.50;;;7.30;;
45944;SDS011;31655;48.972;10.686;2023-08-21T12:16:48;12.10;;;6.88;;
45944;SDS011;31655;48.972;10.686;2023-08-21T12:19:14;10.65;;;6.72;;
45944;SDS011;31655;48.972;10.686;2023-08-21T12:21:44;9.90;;;7.00;;
45944;SDS011;31655;48.972;10.686;2023-08-21T12:24:10;9.50;;;7.07;;
45944;SDS011;31655;48.972;10.686;2023-08-21T12:26:36;12.13;;;7.53;;
45944;SDS011;31655;48.972;10.686;2023-08-21T12:29:02;10.45;;;6.90;;
45944;SDS011;31655;48.972;10.686;2023-08-21T12:31:28;8.20;;;6.35;;
45944;SDS011;31655;48.972;10.686;2023-08-21T12:33:55;11.02;;;6.60;;
45944;SDS011;31655;48.972;10.686;2023-08-21T12:36:21;10.85;;;7.32;;
45944;SDS011;31655;48.972;10.686;2023-08-21T12:38:47;12.80;;;7.00;;
45944;SDS011;31655;48.972;10.686;2023-08-21T12:41:13;12.43;;;7.53;;
45944;SDS011;31655;48.972;10.686;2023-08-21T12:43:39;11.27;;;7.25;;
45944;SDS011;31655;48.972;10.686;2023-08-21T12:46:05;8.00;;;6.90;;
45944;SDS011;31655;48.972;10.686;2023-08-21T12:48:31;10.13;;;7.85;;
45944;SDS011;31655;48.972;10.686;2023-08-21T12:50:57;12.18;;;7.20;;
45944;SDS011;31655;48.972;10.686;2023-08-21T12:53:23;7.93;;;7.07;;
45944;SDS011;31655;48.972;10.686;2023-08-21T12:55:49;12.10;;;7.30;;
45944;SDS011;31655;48.972;10.686;2023-08-21T12:58:15;10.63;;;7.13;;
45944;SDS011;31655;48.972;10.686;2023-08-21T13:00:41;8.82;;;7.57;;
45944;SDS011;31655;48.972;10.686;2023-08-21T13:03:07;11.48;;;7.35;;
45944;SDS011;31655;48.972;10.686;2023-08-21T13:05:33;10.35;;;6.70;;
45944;SDS011;31655;48.972;10.686;2023-08-21T13:07:59;10.50;;;6.93;;
45944;SDS011;31655;48.972;10.686;2023-08-21T13:10:25;10.05;;;6.93;;
45944;SDS011;31655;48.972;10.686;2023-08-21T13:12:51;7.70;;;6.75;;
45944;SDS011;31655;48.972;10.686;2023-08-21T13:15:17;12.35;;;6.53;;
45944;SDS011;31655;48.972;10.686;2023-08-21T13:17:43;10.75;;;6.75;;
45944;SDS011;31655;48.972;10.686;2023-08-21T13:20:09;7.43;;;6.20;;
45944;SDS011;31655;48.972;10.686;2023-08-21T13:22:49;11.27;;;7.55;;
45944;SDS011;31655;48.972;10.686;2023-08-21T13:25:17;12.50;;;7.72;;
45944;SDS011;31655;48.972;10.686;2023-08-21T13:27:44;7.25;;;6.55;;
45944;SDS011;31655;48.972;10.686;2023-08-21T13:30:10;7.35;;;6.43;;
45944;SDS011;31655;48.972;10.686;2023-08-21T13:32:36;10.30;;;7.25;;
45944;SDS011;31655;48.972;10.686;2023-08-21T13:35:02;8.60;;;6.55;;
45944;SDS011;31655;48.972;10.686;2023-08-21T13:37:31;9.27;;;6.82;;
45944;SDS011;31655;48.972;10.686;2023-08-21T13:39:57;7.53;;;6.93;;
45944;SDS011;31655;48.972;10.686;2023-08-21T13:42:25;10.55;;;7.45;;
45944;SDS011;31655;48.972;10.686;2023-08-21T13:44:55;12.07;;;7.53;;
45944;SDS011;31655;48.972;10.686;2023-08-21T13:47:21;14.07;;;7.70;;
45944;SDS011;31655;48.972;10.686;2023-08-21T13:49:48;11.23;;;7.45;;
45944;SDS011;31655;48.972;10.686;2023-08-21T13:52:13;8.48;;;6.75;;
45944;SDS011;31655;48.972;10.686;2023-08-21T13:54:39;10.23;;;7.25;;
45944;SDS011;31655;48.972;10.686;2023-08-21T13:57:05;10.77;;;7.43;;
45944;SDS011;31655;48.972;10.686;2023-08-21T13:59:31;15.38;;;9.23;;
45944;SDS011;31655;48.972;10.686;2023-08-21T14:01:57;9.25;;;7.40;;
45944;SDS011;31655;48.972;10.686;2023-08-21T14:04:22;11.10;;;6.53;;
45944;SDS011;31655;48.972;10.686;2023-08-21T14:06:49;12.05;;;6.90;;
45944;SDS011;31655;48.972;10.686;2023-08-21T14:09:15;8.38;;;7.35;;
45944;SDS011;31655;48.972;10.686;2023-08-21T14:11:41;11.90;;;7.28;;
45944;SDS011;31655;48.972;10.686;2023-08-21T14:14:08;9.65;;;7.53;;
45944;SDS011;31655;48.972;10.686;2023-08-21T14:16:34;7.80;;;6.97;;
45944;SDS011;31655;48.972;10.686;2023-08-21T14:19:00;8.88;;;7.70;;
45944;SDS011;31655;48.972;10.686;2023-08-21T14:21:26;13.23;;;7.88;;
45944;SDS011;31655;48.972;10.686;2023-08-21T14:23:52;12.73;;;7.38;;